Time;durP1;ratioP1;P1;durP2;ratioP2;P2;SDS_P1;SDS_P2;PMS_P1;PMS_P2;Temp;Humidity;BMP_temperature;BMP_pressure;BME280_temperature;BME280_humidity;BME280_pressure;Samples;Min_cycle;Max_cycle;Signal;HPM_P1;HPM_P2
2023/08/04 00:01:22;;;;;;;2.77;0.90;;;13.50;99.90;;;;;;5087105;28;20187;-76
2023/08/04 00:03:48;;;;;;;6.50;0.90;;;13.50;99.90;;;;;;5085007;28;20578;-76
2023/08/04 00:06:13;;;;;;;3.30;1.10;;;13.30;99.90;;;;;;5085671;28;20213;-76
2023/08/04 00:08:39;;;;;;;4.80;1.70;;;13.30;99.90;;;;;;5089304;28;20211;-76
2023/08/04 00:11:04;;;;;;;1.90;0.70;;;13.20;99.90;;;;;;5091157;28;20635;-76
2023/08/04 00:13:31;;;;;;;3.83;0.93;;;13.30;99.90;;;;;;5089901;28;20180;-76
2023/08/04 00:16:07;;;;;;;11.10;1.20;;;13.20;99.90;;;;;;5090967;28;20196;-77
2023/08/04 00:18:33;;;;;;;1.70;0.70;;;13.20;99.90;;;;;;5090369;28;20410;-75
2023/08/04 00:20:58;;;;;;;1.50;0.70;;;13.20;99.90;;;;;;5091158;28;20903;-76
2023/08/04 00:23:24;;;;;;;4.67;1.07;;;13.20;99.90;;;;;;5082643;28;20177;-76
2023/08/04 00:25:49;;;;;;;1.40;0.60;;;13.20;99.90;;;;;;5085619;28;20697;-76
2023/08/04 00:28:15;;;;;;;2.97;0.90;;;14.10;99.90;;;;;;5090336;28;20310;-76
2023/08/04 00:30:40;;;;;;;9.23;0.70;;;13.10;99.90;;;;;;5091375;28;20249;-76
2023/08/04 00:33:07;;;;;;;6.47;0.67;;;13.00;99.90;;;;;;5083358;28;20280;-76
2023/08/04 00:35:33;;;;;;;4.50;0.93;;;13.00;99.90;;;;;;5090704;28;20187;-76
2023/08/04 00:37:58;;;;;;;5.40;1.10;;;13.00;99.90;;;;;;5088078;28;20417;-76
2023/08/04 00:40:24;;;;;;;4.00;1.50;;;12.90;99.90;;;;;;5090988;28;20202;-76
2023/08/04 00:42:50;;;;;;;4.27;1.77;;;12.90;99.90;;;;;;5091502;28;20537;-77
2023/08/04 00:45:15;;;;;;;4.47;1.40;;;12.90;99.90;;;;;;5091497;28;20287;-76
2023/08/04 00:47:41;;;;;;;2.13;0.97;;;12.80;99.90;;;;;;5084443;28;20173;-76
2023/08/04 00:50:09;;;;;;;6.20;1.07;;;12.80;99.90;;;;;;5088919;28;20639;-76
2023/08/04 00:52:37;;;;;;;2.13;1.00;;;12.80;99.90;;;;;;5085957;28;20200;-76
2023/08/04 00:55:03;;;;;;;2.70;1.20;;;12.80;99.90;;;;;;5088295;28;20426;-76
2023/08/04 00:57:29;;;;;;;2.07;0.80;;;12.80;99.90;;;;;;5078474;28;20557;-76
2023/08/04 00:59:57;;;;;;;1.70;0.70;;;13.70;99.90;;;;;;5090185;28;20497;-77
2023/08/04 01:02:24;;;;;;;1.40;0.60;;;12.80;99.90;;;;;;5085912;28;20342;-76
2023/08/04 01:04:49;;;;;;;1.83;0.70;;;12.70;99.90;;;;;;5080112;28;20458;-76
2023/08/04 01:07:23;;;;;;;1.73;0.80;;;12.70;99.90;;;;;;5090738;28;20433;-76
2023/08/04 01:10:13;;;;;;;1.43;0.50;;;12.70;99.90;;;;;;5093930;28;20177;-76
2023/08/04 01:12:59;;;;;;;3.30;0.90;;;12.70;99.90;;;;;;5081141;28;20465;-76
2023/08/04 01:15:26;;;;;;;2.07;0.70;;;12.70;99.90;;;;;;5087975;28;20438;-76
2023/08/04 01:17:54;;;;;;;2.07;0.80;;;12.70;99.90;;;;;;5081509;28;20944;-76
2023/08/04 01:20:20;;;;;;;1.70;0.63;;;12.70;99.90;;;;;;5094031;28;20521;-76
2023/08/04 01:22:45;;;;;;;5.63;0.83;;;12.80;99.90;;;;;;5093573;28;20501;-76
2023/08/04 01:25:11;;;;;;;1.87;0.90;;;12.70;99.90;;;;;;5091056;28;20245;-76
2023/08/04 01:27:46;;;;;;;2.37;1.17;;;;;;;;;;5093216;28;20297;-76
2023/08/04 01:30:24;;;;;;;1.20;0.53;;;12.80;99.90;;;;;;5083006;28;20185;-76
2023/08/04 01:32:50;;;;;;;3.40;0.77;;;12.90;99.90;;;;;;5092804;28;20441;-76
2023/08/04 01:35:16;;;;;;;1.70;0.80;;;;;;;;;;5093183;28;20426;-75
2023/08/04 01:37:43;;;;;;;2.47;0.80;;;12.80;99.90;;;;;;5092166;28;20180;-76
2023/08/04 01:40:10;;;;;;;1.53;0.63;;;13.00;99.90;;;;;;5085382;28;20762;-76
2023/08/04 01:42:36;;;;;;;1.70;0.70;;;;;;;;;;5083617;28;20419;-76
2023/08/04 01:45:02;;;;;;;1.60;0.80;;;;;;;;;;5089661;28;21401;-76
2023/08/04 01:47:28;;;;;;;1.43;0.70;;;;;;;;;;5089508;28;20418;-76
2023/08/04 01:49:54;;;;;;;1.67;0.70;;;13.00;99.90;;;;;;5091191;28;20434;-76
2023/08/04 01:52:21;;;;;;;1.63;0.90;;;;;;;;;;5093137;28;20789;-77
2023/08/04 01:54:47;;;;;;;2.90;1.00;;;;;;;;;;5092745;28;20185;-76
2023/08/04 01:57:13;;;;;;;3.10;0.80;;;13.20;99.90;;;;;;5087364;28;20441;-76
2023/08/04 01:59:39;;;;;;;2.07;0.70;;;13.20;99.90;;;;;;5093496;28;20532;-76
2023/08/04 02:02:04;;;;;;;1.20;0.50;;;13.10;99.90;;;;;;5090874;28;20200;-76
2023/08/04 02:04:30;;;;;;;2.67;1.30;;;13.00;99.90;;;;;;5088419;28;20554;-76
2023/08/04 02:06:55;;;;;;;1.50;0.77;;;13.00;99.90;;;;;;5083682;28;20239;-75
2023/08/04 02:09:22;;;;;;;1.90;0.50;;;13.20;99.90;;;;;;5093002;28;20185;-76
2023/08/04 02:11:48;;;;;;;1.30;0.60;;;13.30;99.90;;;;;;5091555;28;20273;-76
2023/08/04 02:14:14;;;;;;;5.33;0.90;;;13.30;99.90;;;;;;5086896;28;20458;-76
2023/08/04 02:16:40;;;;;;;2.80;1.10;;;13.30;99.90;;;;;;5092288;28;20204;-77
2023/08/04 02:19:08;;;;;;;1.80;0.97;;;13.30;99.90;;;;;;5089303;28;20196;-76
2023/08/04 02:21:33;;;;;;;1.47;0.70;;;13.40;99.90;;;;;;5083839;28;20212;-77
2023/08/04 02:23:59;;;;;;;4.07;1.00;;;13.40;99.90;;;;;;5091279;28;20596;-76
2023/08/04 02:26:25;;;;;;;3.93;1.00;;;13.50;99.90;;;;;;5092585;28;20241;-76
2023/08/04 02:28:54;;;;;;;1.57;0.70;;;;;;;;;;5092294;28;20184;-76
2023/08/04 02:31:22;;;;;;;1.43;0.60;;;13.60;99.90;;;;;;5079303;28;20212;-76
2023/08/04 02:33:47;;;;;;;1.67;0.80;;;13.60;99.90;;;;;;5092084;28;20472;-77
2023/08/04 02:36:14;;;;;;;1.50;0.67;;;13.70;99.90;;;;;;5092720;28;20422;-76
2023/08/04 02:38:39;;;;;;;7.53;0.93;;;13.50;99.90;;;;;;5091774;28;20229;-76
2023/08/04 02:41:08;;;;;;;3.40;0.73;;;13.40;99.90;;;;;;5088605;28;20800;-76
2023/08/04 02:43:33;;;;;;;1.60;0.70;;;13.40;99.90;;;;;;5091486;28;20188;-76
2023/08/04 02:45:59;;;;;;;1.20;0.50;;;13.40;99.90;;;;;;5092784;28;20468;-76
2023/08/04 02:48:24;;;;;;;2.10;0.77;;;13.40;99.90;;;;;;5084667;28;20193;-76
2023/08/04 02:51:07;;;;;;;2.80;0.80;;;13.40;99.90;;;;;;5092651;28;20227;-76
2023/08/04 02:53:34;;;;;;;2.17;0.83;;;13.40;99.90;;;;;;5091541;28;20188;-76
2023/08/04 02:56:07;;;;;;;2.67;0.90;;;13.30;99.90;;;;;;5084090;28;20457;-76
2023/08/04 02:58:33;;;;;;;1.30;0.60;;;13.40;99.90;;;;;;5091876;28;20423;-76
2023/08/04 03:00:59;;;;;;;1.30;0.60;;;13.30;99.90;;;;;;5088850;28;20911;-76
2023/08/04 03:03:25;;;;;;;1.40;0.60;;;13.30;99.90;;;;;;5080725;28;20188;-76
2023/08/04 03:05:50;;;;;;;1.83;0.73;;;13.20;99.90;;;;;;5084004;28;20461;-76
2023/08/04 03:08:16;;;;;;;1.73;0.70;;;13.20;99.90;;;;;;5086632;28;20185;-76
2023/08/04 03:10:42;;;;;;;2.27;0.70;;;13.20;99.90;;;;;;5092348;28;20195;-76
2023/08/04 03:13:10;;;;;;;3.67;0.70;;;13.10;99.90;;;;;;5090121;28;20204;-76
2023/08/04 03:15:36;;;;;;;1.50;0.60;;;13.20;99.90;;;;;;5091819;28;21058;-76
2023/08/04 03:18:02;;;;;;;1.40;0.70;;;13.10;99.90;;;;;;5080456;28;20422;-76
2023/08/04 03:20:39;;;;;;;1.40;0.73;;;13.10;99.90;;;;;;5091714;28;20192;-76
2023/08/04 03:23:05;;;;;;;1.50;0.80;;;13.10;99.90;;;;;;5091145;28;20195;-76
2023/08/04 03:25:32;;;;;;;1.67;0.73;;;13.10;99.90;;;;;;5091304;28;20531;-76
2023/08/04 03:27:57;;;;;;;6.23;0.80;;;13.10;99.90;;;;;;5090424;28;20418;-76
2023/08/04 03:30:23;;;;;;;1.70;0.87;;;13.10;99.90;;;;;;5091880;28;20437;-76
2023/08/04 03:32:48;;;;;;;1.47;0.50;;;13.10;99.90;;;;;;5091387;28;20186;-76
2023/08/04 03:35:14;;;;;;;1.57;0.60;;;13.50;99.90;;;;;;5091452;28;20188;-76
2023/08/04 03:37:40;;;;;;;1.30;0.60;;;13.40;99.90;;;;;;5087104;28;20193;-76
2023/08/04 03:40:07;;;;;;;1.60;0.70;;;13.30;99.90;;;;;;5091293;28;20189;-76
2023/08/04 03:42:33;;;;;;;2.53;0.70;;;13.30;99.90;;;;;;5090805;28;20680;-76
2023/08/04 03:44:59;;;;;;;2.13;0.73;;;13.40;99.90;;;;;;5090950;28;20947;-76
2023/08/04 03:47:24;;;;;;;1.83;0.83;;;13.30;99.90;;;;;;5091142;28;20468;-76
2023/08/04 03:49:50;;;;;;;3.43;0.67;;;13.50;99.90;;;;;;5091230;28;20188;-76
2023/08/04 03:52:15;;;;;;;1.40;0.67;;;13.30;99.90;;;;;;5090741;28;20180;-76
2023/08/04 03:54:41;;;;;;;2.13;0.60;;;13.40;99.90;;;;;;5090508;28;20684;-76
2023/08/04 03:57:07;;;;;;;1.87;0.70;;;13.40;99.90;;;;;;5090707;28;20195;-76
2023/08/04 03:59:32;;;;;;;2.00;0.70;;;13.50;99.90;;;;;;5091364;28;20211;-76
2023/08/04 04:01:58;;;;;;;1.60;0.60;;;13.40;99.90;;;;;;5089023;28;20184;-76
2023/08/04 04:04:23;;;;;;;3.93;1.03;;;13.40;99.90;;;;;;5084295;28;20220;-76
2023/08/04 04:06:49;;;;;;;2.73;0.70;;;13.40;99.90;;;;;;5086379;28;20181;-76
2023/08/04 04:09:15;;;;;;;2.00;0.77;;;13.40;99.90;;;;;;5089211;28;20225;-76
2023/08/04 04:11:40;;;;;;;2.00;0.83;;;13.40;99.90;;;;;;5072661;28;20503;-76
2023/08/04 04:14:08;;;;;;;1.20;0.57;;;13.40;99.90;;;;;;5081493;28;20254;-76
2023/08/04 04:16:33;;;;;;;1.50;0.70;;;13.40;99.90;;;;;;5082686;28;20200;-75
2023/08/04 04:18:59;;;;;;;6.03;0.87;;;13.30;99.90;;;;;;5078442;28;20454;-76
2023/08/04 04:21:24;;;;;;;2.40;0.80;;;13.30;99.90;;;;;;5086004;28;20192;-76
2023/08/04 04:23:50;;;;;;;1.40;0.60;;;13.30;99.90;;;;;;5090193;28;20270;-76
2023/08/04 04:26:15;;;;;;;1.97;0.70;;;13.30;99.90;;;;;;5091008;28;20306;-76
2023/08/04 04:28:41;;;;;;;3.87;0.80;;;13.30;99.90;;;;;;5070399;28;20230;-76
2023/08/04 04:31:07;;;;;;;2.90;0.90;;;13.30;99.90;;;;;;5091123;28;20179;-76
2023/08/04 04:33:32;;;;;;;1.87;0.90;;;13.30;99.90;;;;;;5090480;28;20188;-76
2023/08/04 04:35:58;;;;;;;1.37;0.70;;;13.20;99.90;;;;;;5090792;28;20184;-76
2023/08/04 04:38:28;;;;;;;1.70;0.90;;;13.20;99.90;;;;;;5090670;28;20673;-76
2023/08/04 04:40:57;;;;;;;1.30;0.60;;;13.20;99.90;;;;;;5094131;28;20215;-76
2023/08/04 04:43:24;;;;;;;1.70;0.60;;;13.10;99.90;;;;;;5093963;28;20422;-76
2023/08/04 04:45:50;;;;;;;1.20;0.50;;;13.10;99.90;;;;;;5094893;28;20454;-76
2023/08/04 04:48:17;;;;;;;2.13;0.70;;;13.10;99.90;;;;;;5094812;28;20442;-76
2023/08/04 04:50:42;;;;;;;1.90;1.07;;;13.10;99.90;;;;;;5094985;28;20509;-76
2023/08/04 04:53:08;;;;;;;1.37;0.60;;;13.10;99.90;;;;;;5094222;28;20497;-76
2023/08/04 04:55:33;;;;;;;2.60;0.93;;;13.10;99.90;;;;;;5094326;28;20192;-76
2023/08/04 04:57:59;;;;;;;3.63;0.70;;;13.10;99.90;;;;;;5094336;28;20214;-76
2023/08/04 05:00:25;;;;;;;1.70;0.70;;;13.10;99.90;;;;;;5094396;28;20507;-77
2023/08/04 05:02:50;;;;;;;2.90;1.13;;;13.10;99.90;;;;;;5088863;28;20542;-75
2023/08/04 05:05:16;;;;;;;1.30;0.50;;;13.20;99.90;;;;;;5094010;28;20295;-76
2023/08/04 05:07:41;;;;;;;1.60;0.80;;;13.30;99.90;;;;;;5087936;28;20196;-76
2023/08/04 05:10:08;;;;;;;2.50;1.03;;;13.40;99.90;;;;;;5094303;28;20212;-77
2023/08/04 05:12:34;;;;;;;6.77;1.13;;;13.50;99.90;;;;;;5086869;28;20193;-76
2023/08/04 05:14:59;;;;;;;1.47;0.50;;;13.60;99.90;;;;;;5090861;28;20458;-76
2023/08/04 05:17:25;;;;;;;1.20;0.50;;;13.60;99.90;;;;;;5088459;28;20192;-75
2023/08/04 05:19:51;;;;;;;1.30;0.60;;;13.70;99.90;;;;;;5093561;28;20188;-77
2023/08/04 05:22:16;;;;;;;1.40;0.50;;;13.80;99.90;;;;;;5094772;28;20203;-76
2023/08/04 05:24:42;;;;;;;1.60;0.70;;;13.90;99.90;;;;;;5093762;28;20197;-77
2023/08/04 05:27:08;;;;;;;2.43;0.53;;;14.00;99.90;;;;;;5091922;28;20181;-76
2023/08/04 05:29:33;;;;;;;1.30;0.50;;;14.00;99.90;;;;;;5094360;28;20486;-77
2023/08/04 05:31:59;;;;;;;1.80;0.70;;;14.10;99.90;;;;;;5094337;28;20429;-76
2023/08/04 05:34:25;;;;;;;2.73;0.70;;;14.20;99.90;;;;;;5093944;28;20222;-77
2023/08/04 05:36:50;;;;;;;1.70;0.80;;;14.30;99.90;;;;;;5094806;28;20199;-76
2023/08/04 05:39:17;;;;;;;1.83;0.80;;;14.40;99.90;;;;;;5090238;28;20218;-77
2023/08/04 05:41:45;;;;;;;5.70;0.93;;;14.50;99.90;;;;;;5093335;28;20235;-77
2023/08/04 05:44:11;;;;;;;2.53;0.93;;;14.70;99.90;;;;;;5086078;28;20475;-76
2023/08/04 05:46:37;;;;;;;1.67;0.80;;;14.80;99.90;;;;;;5092616;28;20423;-76
2023/08/04 05:49:03;;;;;;;16.10;0.87;;;14.90;99.90;;;;;;5094585;28;20426;-77
2023/08/04 05:51:28;;;;;;;1.80;0.60;;;15.00;99.90;;;;;;5090998;28;20468;-77
2023/08/04 05:53:54;;;;;;;1.40;0.60;;;15.10;99.90;;;;;;5092745;28;20244;-76
2023/08/04 05:56:19;;;;;;;1.60;0.67;;;15.20;99.90;;;;;;5095148;28;20176;-77
2023/08/04 05:58:45;;;;;;;2.53;0.70;;;15.20;99.90;;;;;;5095052;28;20610;-77
2023/08/04 06:01:11;;;;;;;1.60;0.73;;;15.40;99.90;;;;;;5096798;28;20259;-77
2023/08/04 06:03:36;;;;;;;1.87;0.80;;;15.50;99.90;;;;;;5087993;28;20180;-77
2023/08/04 06:06:03;;;;;;;4.40;0.83;;;15.60;99.90;;;;;;5083068;28;20257;-76
2023/08/04 06:08:29;;;;;;;1.40;0.60;;;15.70;99.90;;;;;;5080768;28;20208;-77
2023/08/04 06:10:54;;;;;;;2.80;0.73;;;15.70;99.90;;;;;;5084239;28;20459;-77
2023/08/04 06:13:20;;;;;;;1.90;1.23;;;15.80;99.90;;;;;;5083793;28;20635;-77
2023/08/04 06:15:47;;;;;;;2.90;0.90;;;15.90;99.90;;;;;;5091092;28;20232;-77
2023/08/04 06:18:13;;;;;;;5.00;1.37;;;15.90;99.90;;;;;;5091047;28;20181;-76
2023/08/04 06:20:39;;;;;;;1.37;0.53;;;16.00;99.90;;;;;;5088442;28;20429;-77
2023/08/04 06:23:05;;;;;;;1.60;0.70;;;16.10;99.90;;;;;;5088706;28;20477;-76
2023/08/04 06:25:30;;;;;;;2.17;0.90;;;16.10;99.90;;;;;;5085046;28;20634;-77
2023/08/04 06:27:56;;;;;;;2.63;0.87;;;16.10;99.90;;;;;;5085236;28;20637;-77
2023/08/04 06:30:22;;;;;;;2.20;0.90;;;16.20;99.90;;;;;;5084492;28;20186;-77
2023/08/04 06:32:49;;;;;;;1.70;0.70;;;16.30;99.90;;;;;;5092240;28;20181;-76
2023/08/04 06:35:15;;;;;;;1.40;0.63;;;16.30;99.90;;;;;;5088626;28;20690;-77
2023/08/04 06:37:40;;;;;;;1.60;0.60;;;16.20;99.90;;;;;;5089137;28;20426;-76
2023/08/04 06:40:07;;;;;;;1.47;0.70;;;16.30;99.90;;;;;;5091946;28;20187;-77
2023/08/04 06:42:32;;;;;;;1.30;0.50;;;16.30;99.90;;;;;;5089095;28;20206;-77
2023/08/04 06:44:58;;;;;;;1.93;0.80;;;16.40;99.90;;;;;;5091910;28;20473;-77
2023/08/04 06:47:23;;;;;;;1.60;0.70;;;16.40;99.90;;;;;;5090070;28;20325;-76
2023/08/04 06:49:49;;;;;;;1.20;0.50;;;16.50;99.90;;;;;;5092023;28;20188;-77
2023/08/04 06:52:15;;;;;;;1.77;0.60;;;16.50;99.90;;;;;;5089770;28;20181;-77
2023/08/04 06:54:41;;;;;;;1.60;0.70;;;16.60;99.90;;;;;;5091189;28;20422;-76
2023/08/04 06:57:07;;;;;;;1.30;0.50;;;16.80;99.90;;;;;;5091189;28;20172;-76
2023/08/04 06:59:33;;;;;;;1.80;0.70;;;17.00;99.90;;;;;;5091471;28;20739;-77
2023/08/04 07:01:59;;;;;;;1.93;0.60;;;17.00;99.90;;;;;;5082048;28;20230;-77
2023/08/04 07:04:25;;;;;;;1.40;0.60;;;17.00;99.90;;;;;;5085943;28;20250;-77
2023/08/04 07:06:51;;;;;;;1.57;0.70;;;17.10;99.90;;;;;;5082348;28;20455;-76
2023/08/04 07:09:16;;;;;;;1.20;0.50;;;17.30;99.90;;;;;;5084591;28;20179;-76
2023/08/04 07:11:42;;;;;;;1.97;0.80;;;17.50;99.90;;;;;;5091278;28;20250;-76
2023/08/04 07:14:07;;;;;;;1.40;0.53;;;17.60;99.90;;;;;;5084893;28;20173;-77
2023/08/04 07:16:34;;;;;;;1.30;0.50;;;17.80;99.90;;;;;;5090176;28;20196;-77
2023/08/04 07:19:00;;;;;;;2.80;0.70;;;18.00;99.90;;;;;;5084723;28;20529;-76
2023/08/04 07:21:25;;;;;;;1.80;1.00;;;18.00;99.90;;;;;;5087363;28;20978;-77
2023/08/04 07:23:51;;;;;;;2.93;0.60;;;18.30;99.90;;;;;;5083249;28;20224;-76
2023/08/04 07:26:16;;;;;;;1.40;0.60;;;18.50;99.90;;;;;;5090012;28;20183;-77
2023/08/04 07:28:42;;;;;;;1.73;0.67;;;18.60;99.90;;;;;;5087025;28;20268;-77
2023/08/04 07:31:09;;;;;;;3.23;0.97;;;18.40;99.90;;;;;;5090873;28;20221;-71
2023/08/04 07:33:36;;;;;;;1.50;0.60;;;18.30;99.90;;;;;;5089864;28;20177;-71
2023/08/04 07:36:02;;;;;;;1.30;0.50;;;18.20;99.90;;;;;;5080743;28;20479;-71
2023/08/04 07:38:29;;;;;;;1.87;0.70;;;18.40;99.90;;;;;;5083996;28;20470;-71
2023/08/04 07:40:55;;;;;;;2.50;0.73;;;18.30;99.90;;;;;;5085485;28;20438;-71
2023/08/04 07:43:20;;;;;;;4.57;1.10;;;18.30;99.90;;;;;;5070419;28;20426;-74
2023/08/04 07:45:46;;;;;;;5.50;1.10;;;18.20;99.90;;;;;;5085095;28;20458;-71
2023/08/04 07:48:12;;;;;;;1.67;0.70;;;18.40;99.90;;;;;;5090173;28;20642;-76
2023/08/04 07:50:43;;;;;;;1.47;0.60;;;18.50;99.90;;;;;;5090517;28;20183;-75
2023/08/04 07:53:09;;;;;;;1.30;0.50;;;18.60;99.90;;;;;;5090120;28;20186;-76
2023/08/04 07:55:36;;;;;;;1.43;0.60;;;;;;;;;;5090850;28;20904;-76
2023/08/04 07:58:02;;;;;;;2.67;0.93;;;18.60;99.90;;;;;;5090015;28;20181;-72
2023/08/04 08:00:28;;;;;;;1.43;0.60;;;18.60;99.90;;;;;;5090130;28;20959;-77
2023/08/04 08:02:53;;;;;;;3.97;1.07;;;18.40;99.90;;;;;;5088871;28;20450;-72
2023/08/04 08:05:19;;;;;;;1.40;0.60;;;18.40;99.90;;;;;;5089658;28;20645;-70
2023/08/04 08:07:45;;;;;;;3.43;0.60;;;18.50;99.90;;;;;;5076474;28;20650;-70
2023/08/04 08:10:10;;;;;;;2.10;0.90;;;18.40;99.90;;;;;;5085869;28;20266;-70
2023/08/04 08:12:36;;;;;;;3.63;0.70;;;18.50;99.90;;;;;;5086395;28;20258;-70
2023/08/04 08:15:05;;;;;;;1.50;0.67;;;18.70;99.90;;;;;;5086392;28;20637;-71
2023/08/04 08:17:30;;;;;;;4.67;0.70;;;19.30;99.90;;;;;;5088802;28;20242;-70
2023/08/04 08:19:56;;;;;;;1.60;0.63;;;19.80;99.90;;;;;;5087714;28;20422;-69
2023/08/04 08:22:22;;;;;;;1.60;0.60;;;20.50;99.90;;;;;;5085510;28;20237;-69
2023/08/04 08:24:51;;;;;;;1.57;0.80;;;21.50;99.20;;;;;;5086409;28;20207;-69
2023/08/04 08:27:17;;;;;;;2.30;0.93;;;21.90;99.00;;;;;;5087068;28;20172;-70
2023/08/04 08:29:43;;;;;;;1.90;0.80;;;22.20;97.90;;;;;;5088698;28;20929;-69
2023/08/04 08:32:08;;;;;;;4.30;0.80;;;21.80;97.90;;;;;;5076533;28;20215;-69
2023/08/04 08:34:34;;;;;;;3.03;1.20;;;21.80;97.80;;;;;;5082675;28;20208;-70
2023/08/04 08:37:02;;;;;;;1.30;0.50;;;21.40;98.50;;;;;;5084612;28;20187;-72
2023/08/04 08:39:28;;;;;;;4.23;0.80;;;21.00;98.30;;;;;;5071237;28;20184;-73
2023/08/04 08:41:54;;;;;;;1.50;0.70;;;20.80;99.40;;;;;;5086294;28;20464;-71
2023/08/04 08:44:20;;;;;;;1.53;0.60;;;20.20;99.80;;;;;;5087589;28;20493;-74
2023/08/04 08:46:45;;;;;;;2.90;0.90;;;20.10;99.90;;;;;;5086972;28;20187;-75
2023/08/04 08:49:12;;;;;;;1.40;0.60;;;20.00;99.90;;;;;;5085226;28;20192;-72
2023/08/04 08:51:44;;;;;;;3.30;0.80;;;19.80;99.90;;;;;;5087424;28;20252;-73
2023/08/04 08:54:11;;;;;;;3.60;1.17;;;19.80;99.90;;;;;;5083436;28;20410;-74
2023/08/04 08:56:37;;;;;;;2.57;0.70;;;19.70;99.90;;;;;;5087638;28;20430;-74
2023/08/04 08:59:03;;;;;;;2.60;0.73;;;19.50;99.90;;;;;;5078285;28;20422;-70
2023/08/04 09:01:30;;;;;;;1.73;0.80;;;19.90;99.90;;;;;;5083553;28;20188;-70
2023/08/04 09:03:59;;;;;;;5.10;0.80;;;20.10;99.90;;;;;;5077868;28;20665;-74
2023/08/04 09:06:24;;;;;;;1.80;0.60;;;20.60;99.70;;;;;;5086121;28;20410;-71
2023/08/04 09:08:50;;;;;;;1.30;0.40;;;20.80;99.50;;;;;;5085008;28;21215;-71
2023/08/04 09:11:16;;;;;;;1.87;0.80;;;21.50;98.00;;;;;;5086883;28;20211;-72
2023/08/04 09:13:43;;;;;;;1.47;0.60;;;22.40;96.70;;;;;;5080707;28;20245;-77
2023/08/04 09:16:12;;;;;;;1.40;0.63;;;23.00;96.50;;;;;;5085906;28;20194;-76
2023/08/04 09:18:39;;;;;;;2.53;0.80;;;24.10;94.80;;;;;;5084655;28;20222;-77
2023/08/04 09:21:07;;;;;;;1.63;0.63;;;24.30;94.20;;;;;;5087643;28;20172;-76
2023/08/04 09:23:36;;;;;;;7.82;0.75;;;24.80;93.60;;;;;;5086051;28;20180;-76
2023/08/04 09:26:01;;;;;;;3.92;0.70;;;25.40;91.70;;;;;;5088577;28;20707;-77
2023/08/04 09:28:27;;;;;;;3.75;0.95;;;24.70;92.60;;;;;;5091639;28;20176;-77
2023/08/04 09:31:08;;;;;;;1.75;0.65;;;24.50;91.50;;;;;;5092139;28;20632;-76
2023/08/04 09:33:37;;;;;;;3.30;0.60;;;23.40;92.90;;;;;;5085333;28;20221;-76
2023/08/04 09:36:11;;;;;;;1.30;0.50;;;22.70;93.10;;;;;;5091963;28;20187;-76
2023/08/04 09:38:38;;;;;;;3.93;0.80;;;22.40;94.60;;;;;;5091746;28;20417;-76
2023/08/04 09:41:08;;;;;;;1.53;0.67;;;21.90;96.50;;;;;;5089268;28;20518;-76
2023/08/04 09:43:35;;;;;;;1.30;0.50;;;21.40;99.00;;;;;;5081887;28;20522;-76
2023/08/04 09:46:07;;;;;;;2.43;0.80;;;21.00;99.90;;;;;;5084916;28;20467;-76
2023/08/04 09:48:33;;;;;;;1.57;0.70;;;20.70;99.90;;;;;;5086573;28;20756;-76
2023/08/04 09:51:04;;;;;;;1.60;0.60;;;20.40;99.90;;;;;;5088458;28;20425;-75
2023/08/04 09:53:29;;;;;;;1.30;0.50;;;19.80;99.90;;;;;;5087256;28;20284;-75
2023/08/04 09:55:56;;;;;;;1.67;0.67;;;19.30;99.90;;;;;;5091289;28;21341;-75
2023/08/04 09:58:22;;;;;;;3.67;1.00;;;18.80;99.90;;;;;;5091090;28;20771;-76
2023/08/04 10:00:48;;;;;;;1.60;0.67;;;18.60;99.90;;;;;;5091261;28;20509;-76
2023/08/04 10:03:15;;;;;;;1.40;0.60;;;18.60;99.90;;;;;;5070834;28;20552;-76
2023/08/04 10:05:40;;;;;;;1.80;0.70;;;18.50;99.90;;;;;;5090224;28;20219;-75
2023/08/04 10:08:06;;;;;;;1.90;0.90;;;18.60;99.90;;;;;;5089033;28;20427;-75
2023/08/04 10:10:32;;;;;;;2.97;0.90;;;18.50;99.90;;;;;;5080358;28;20314;-75
2023/08/04 10:12:58;;;;;;;1.40;0.57;;;18.20;99.90;;;;;;5082644;28;20306;-75
2023/08/04 10:15:24;;;;;;;4.33;1.40;;;17.90;99.90;;;;;;5085058;28;20235;-75
2023/08/04 10:17:50;;;;;;;3.20;1.37;;;17.90;99.90;;;;;;5085786;28;20442;-75
2023/08/04 10:20:16;;;;;;;1.60;0.70;;;18.00;99.90;;;;;;5090765;28;20445;-75
2023/08/04 10:22:43;;;;;;;4.13;0.80;;;18.00;99.90;;;;;;5085190;28;20842;-75
2023/08/04 10:25:14;;;;;;;1.50;0.60;;;18.00;99.90;;;;;;5089797;28;20211;-75
2023/08/04 10:27:50;;;;;;;4.03;0.80;;;18.20;99.90;;;;;;5087417;28;20523;-75
2023/08/04 10:30:16;;;;;;;1.60;0.70;;;18.40;99.90;;;;;;5087885;28;20403;-75
2023/08/04 10:32:42;;;;;;;1.70;0.73;;;18.60;99.90;;;;;;5083412;28;20433;-75
2023/08/04 10:35:19;;;;;;;1.50;0.60;;;18.70;99.90;;;;;;5090372;28;20418;-77
2023/08/04 10:37:53;;;;;;;1.30;0.50;;;19.00;99.90;;;;;;5083081;28;21046;-77
2023/08/04 10:40:38;;;;;;;1.30;0.60;;;19.10;99.90;;;;;;5090798;28;20879;-76
2023/08/04 10:43:06;;;;;;;1.30;0.50;;;19.50;99.90;;;;;;5082107;28;20423;-72
2023/08/04 10:46:05;;;;;;;3.30;0.70;;;19.90;99.90;;;;;;5088429;28;20454;-75
2023/08/04 10:48:36;;;;;;;1.90;0.70;;;20.40;99.90;;;;;;5086179;28;20438;-76
2023/08/04 10:51:01;;;;;;;1.87;0.53;;;20.50;99.90;;;;;;5086547;28;20472;-77
2023/08/04 10:53:28;;;;;;;4.23;0.60;;;20.60;99.90;;;;;;5082365;28;20418;-75
2023/08/04 10:56:00;;;;;;;2.33;1.00;;;20.40;99.90;;;;;;5088985;28;20184;-76
2023/08/04 10:58:27;;;;;;;2.03;0.90;;;20.30;99.90;;;;;;5085971;28;20434;-77
2023/08/04 11:00:54;;;;;;;2.57;0.73;;;20.10;99.90;;;;;;5083030;28;20457;-76
2023/08/04 11:03:25;;;;;;;2.27;0.60;;;19.60;99.90;;;;;;5083663;28;20426;-76
2023/08/04 11:05:52;;;;;;;1.60;0.60;;;19.00;99.90;;;;;;5088785;28;20572;-75
2023/08/04 11:08:21;;;;;;;1.60;0.70;;;18.50;99.90;;;;;;5087555;28;20424;-75
2023/08/04 11:10:55;;;;;;;1.60;0.60;;;18.10;99.90;;;;;;5080643;28;20431;-76
2023/08/04 11:13:22;;;;;;;4.43;0.90;;;17.90;99.90;;;;;;5086809;28;20411;-74
2023/08/04 11:15:49;;;;;;;5.00;1.37;;;17.70;99.90;;;;;;5086858;28;20495;-74
2023/08/04 11:18:20;;;;;;;1.60;0.70;;;17.40;99.90;;;;;;5085317;28;20414;-74
2023/08/04 11:20:45;;;;;;;2.13;1.00;;;17.20;99.90;;;;;;5089852;28;20422;-74
2023/08/04 11:23:12;;;;;;;1.60;0.70;;;17.10;99.90;;;;;;5088503;28;20506;-73
2023/08/04 11:25:39;;;;;;;3.53;0.83;;;17.00;99.90;;;;;;5089023;28;20211;-73
2023/08/04 11:28:06;;;;;;;1.70;0.70;;;16.80;99.90;;;;;;5090119;28;20444;-72
2023/08/04 11:30:36;;;;;;;1.60;0.60;;;16.80;99.90;;;;;;5087363;28;20455;-72
2023/08/04 11:33:07;;;;;;;3.43;0.80;;;16.70;99.90;;;;;;5087014;28;20423;-72
2023/08/04 11:35:33;;;;;;;3.00;0.60;;;16.70;99.90;;;;;;5088585;28;20818;-72
2023/08/04 11:38:03;;;;;;;1.73;0.80;;;16.70;99.90;;;;;;5083254;28;21212;-72
2023/08/04 11:40:29;;;;;;;1.50;0.73;;;16.80;99.90;;;;;;5088062;28;20295;-72
2023/08/04 11:42:59;;;;;;;1.30;0.60;;;16.70;99.90;;;;;;5087695;28;20508;-72
2023/08/04 11:45:25;;;;;;;1.63;0.80;;;16.70;99.90;;;;;;5087492;28;20203;-72
2023/08/04 11:47:54;;;;;;;4.33;1.23;;;16.80;99.90;;;;;;5081146;28;20937;-72
2023/08/04 11:50:20;;;;;;;3.17;1.57;;;16.90;99.90;;;;;;5087638;28;20413;-72
2023/08/04 11:52:47;;;;;;;3.53;1.27;;;17.10;99.90;;;;;;5088461;28;20414;-72
2023/08/04 11:55:12;;;;;;;3.00;1.20;;;17.40;99.90;;;;;;5088259;28;20183;-73
2023/08/04 11:57:51;;;;;;;2.37;0.90;;;17.60;99.90;;;;;;5087650;28;20429;-73
2023/08/04 12:00:30;;;;;;;9.33;1.50;;;17.80;99.90;;;;;;5088860;28;20577;-73
2023/08/04 12:02:57;;;;;;;1.90;1.10;;;17.90;99.90;;;;;;5087754;28;20415;-73
2023/08/04 12:05:32;;;;;;;2.17;1.10;;;18.00;99.90;;;;;;5087712;28;20904;-74
2023/08/04 12:08:10;;;;;;;2.90;1.20;;;18.10;99.90;;;;;;5082133;28;20445;-74
2023/08/04 12:10:37;;;;;;;3.10;1.00;;;18.30;99.90;;;;;;5079191;28;20456;-73
2023/08/04 12:13:02;;;;;;;5.83;1.30;;;18.40;99.90;;;;;;5083575;28;20423;-73
2023/08/04 12:15:28;;;;;;;1.83;1.10;;;18.20;99.90;;;;;;5086708;28;20484;-73
2023/08/04 12:17:54;;;;;;;2.63;0.87;;;18.40;99.90;;;;;;5087017;28;20180;-73
2023/08/04 12:20:19;;;;;;;7.50;1.63;;;18.70;99.90;;;;;;5087122;28;20199;-73
2023/08/04 12:22:45;;;;;;;3.73;0.80;;;18.70;99.90;;;;;;5087007;28;20184;-73
2023/08/04 12:25:12;;;;;;;4.40;1.30;;;18.70;99.90;;;;;;5086360;28;20215;-73
2023/08/04 12:27:39;;;;;;;3.13;1.20;;;19.00;99.90;;;;;;5083421;28;20196;-73
2023/08/04 12:30:05;;;;;;;1.87;1.00;;;19.00;99.90;;;;;;5086099;28;20471;-73
2023/08/04 12:32:31;;;;;;;5.10;1.50;;;19.00;99.90;;;;;;5085115;28;20461;-73
2023/08/04 12:34:57;;;;;;;2.53;1.27;;;18.90;99.90;;;;;;5087834;28;20875;-74
2023/08/04 12:37:23;;;;;;;1.30;0.70;;;18.90;99.90;;;;;;5083615;28;20654;-74
2023/08/04 12:39:49;;;;;;;2.60;1.13;;;18.90;99.90;;;;;;5087792;28;20443;-74
2023/08/04 12:42:14;;;;;;;3.50;0.80;;;19.00;99.90;;;;;;5084433;28;20310;-74
2023/08/04 12:44:40;;;;;;;2.00;0.60;;;19.00;99.90;;;;;;5087181;28;20200;-74
2023/08/04 12:47:09;;;;;;;2.23;0.90;;;19.00;99.90;;;;;;5086497;28;20206;-74
2023/08/04 12:49:34;;;;;;;1.70;0.80;;;19.20;99.90;;;;;;5088376;28;20855;-74